Latest Weather Observations for Middle Point

IDD60901

Issued at 7:51 am CST Monday 25 July 2016 (issued every 10 minutes, with the page automatically refreshed every 10 minutes)

About weather observations | Map of Darwin area stations | Latest observations for Darwin area | Other Formats
Station Details ID: 014041 Name: MIDDLE POINT Lat: -12.61 Lon: 131.30 Height: 14.1 m
Data from the previous 72 hours. | See also: Recent months at Middle Point
Date/Time
CST
Temp
°C
App
Temp
°C
Dew
Point
°C
Rel
Hum
%
Delta-T
°C
Wind Press
QNH
hPa
Press
MSL
hPa
Rain since
9am
mm
Dir  Spd
km/h
Gust
km/h
Spd
kts
Gust
kts
25/07:30am 19.5 22.3 18.0 91 0.9 CALM 0 0 0 0 1013.2 1013.1 0.0
25/07:00am 19.4 22.2 17.9 91 0.9 CALM 0 0 0 0 1012.8 1012.7 0.0
25/06:30am 19.3 21.6 17.8 91 0.9 S 2 4 1 2 1012.6 1012.5 0.0
25/06:00am 19.4 22.2 17.9 91 0.9 CALM 0 0 0 0 1012.1 1012.0 0.0
25/05:30am 19.9 22.5 18.4 91 0.9 S 2 4 1 2 1012.2 1012.1 0.0
25/05:00am 19.4 22.1 17.7 90 1.0 CALM 0 0 0 0 1011.9 1011.8 0.0
25/04:30am 19.1 21.7 17.4 90 1.0 CALM 0 0 0 0 1011.8 1011.7 0.0
25/04:00am 19.0 21.4 17.0 88 1.2 CALM 0 0 0 0 1011.9 1011.8 0.0
25/03:30am 19.8 22.5 17.8 88 1.2 CALM 0 0 0 0 1012.0 1011.9 0.0
25/03:00am 20.1 22.9 17.9 87 1.4 CALM 0 0 0 0 1012.1 1012.0 0.0
25/02:30am 20.3 23.2 18.2 88 1.3 CALM 0 0 0 0 1012.2 1012.1 0.0
25/02:00am 20.6 23.6 18.4 87 1.4 CALM 0 0 0 0 1012.4 1012.3 0.0
25/01:30am 21.1 24.4 19.0 88 1.3 CALM 0 0 0 0 1012.5 1012.4 0.0
25/01:00am 20.5 23.4 18.3 87 1.4 CALM 0 0 0 0 1012.5 1012.4 0.0
25/12:30am 21.1 24.0 18.3 84 1.7 CALM 0 0 0 0 1012.5 1012.4 0.0
25/12:00am 22.2 25.6 19.4 84 1.8 CALM 0 0 0 0 1012.5 1012.4 0.0
 
Date/Time
CST
Temp
°C
App
Temp
°C
Dew
Point
°C
Rel
Hum
%
Delta-T
°C
Wind Press
QNH
hPa
Press
MSL
hPa
Rain since
9am
mm
Dir  Spd
km/h
Gust
km/h
Spd
kts
Gust
kts
24/11:30pm 22.2 25.5 19.0 82 2.0 CALM 0 2 0 1 1012.8 1012.7 0.0
24/11:00pm 22.7 25.8 19.5 82 2.0 NW 2 4 1 2 1012.9 1012.8 0.0
24/10:30pm 23.5 26.2 19.4 78 2.6 NW 4 4 2 2 1012.9 1012.8 0.0
24/10:00pm 24.7 27.7 20.0 75 3.0 NW 4 6 2 3 1013.0 1012.9 0.0
24/09:30pm 25.0 27.8 19.6 72 3.5 NW 4 6 2 3 1012.9 1012.8 0.0
24/09:00pm 25.9 28.2 19.5 68 4.1 NW 6 7 3 4 1012.5 1012.4 0.0
24/08:30pm 26.6 28.8 19.7 66 4.5 N 7 9 4 5 1012.2 1012.1 0.0
24/08:00pm 27.8 28.6 19.1 59 5.6 N 13 17 7 9 1011.6 1011.5 0.0
24/07:30pm 28.0 28.6 20.3 63 5.1 NNE 17 22 9 12 1010.9 1010.8 0.0
24/07:00pm 28.1 30.6 19.9 61 5.4 NNW 6 7 3 4 1010.2 1010.2 0.0
24/06:30pm 29.7 31.2 19.7 55 6.6 NNW 11 13 6 7 1009.8 1009.8 0.0
24/06:00pm 31.2 32.2 19.5 49 7.7 NNW 13 17 7 9 1009.4 1009.4 0.0
24/05:30pm 33.8 33.6 14.8 32 11.8 ESE 9 15 5 8 1009.1 1009.1 0.0
24/05:00pm 33.9 33.2 14.4 31 12.0 SE 11 13 6 7 1009.0 1009.0 0.0
24/04:30pm 35.1 33.5 13.9 28 13.0 ESE 15 24 8 13 1008.9 1008.9 0.0
24/04:00pm 34.9 32.8 13.7 28 13.0 ESE 17 22 9 12 1008.8 1008.8 0.0
24/03:30pm 34.7 33.7 14.6 30 12.5 ESE 13 20 7 11 1009.0 1009.0 0.0
24/03:00pm 35.3 33.4 15.1 30 12.6 ESE 19 30 10 16 1009.3 1009.3 0.0
24/02:30pm 34.1 33.4 15.5 32 11.6 ESE 13 20 7 11 1009.8 1009.8 0.0
24/02:00pm 33.6 32.8 16.0 34 11.1 ESE 15 28 8 15 1010.3 1010.3 0.0
24/01:30pm 33.6 32.3 17.3 37 10.4 ESE 20 30 11 16 1010.9 1010.8 0.0
24/01:00pm 33.4 33.4 18.0 40 10.0 ESE 15 22 8 12 1011.5 1011.4 0.0
24/12:30pm 31.9 31.9 18.1 43 8.9 SE 15 24 8 13 1012.2 1012.1 0.0
24/12:00pm 32.6 33.2 17.6 40 9.6 E 11 26 6 14 1012.5 1012.4 0.0
24/11:30am 32.1 32.7 18.7 45 8.7 E 13 20 7 11 1013.0 1012.9 0.0
24/11:00am 31.8 32.8 18.7 45 8.5 E 11 19 6 10 1013.5 1013.4 0.0
24/10:30am 30.3 32.9 20.0 54 6.8 ESE 6 15 3 8 1013.7 1013.6 0.0
24/10:00am 29.1 31.6 20.3 59 5.8 ESE 7 11 4 6 1013.9 1013.8 0.0
24/09:30am 28.2 31.6 21.0 65 4.8 ESE 4 6 2 3 1013.9 1013.8 0.0
24/09:00am 25.7 29.2 21.1 76 3.0 S 4 6 2 3 1013.9 1013.8 0.0
24/08:30am 23.2 26.7 20.3 84 1.9 SSE 2 6 1 3 1013.6 1013.5 0.0
24/08:00am 21.3 24.8 19.6 90 1.1 CALM 0 0 0 0 1013.3 1013.2 0.0
24/07:30am 19.1 21.6 17.2 89 1.2 CALM 0 0 0 0 1012.8 1012.7 0.0
24/07:00am 19.2 21.8 17.5 90 1.0 CALM 0 0 0 0 1012.6 1012.5 0.0
24/06:30am 19.2 21.9 17.7 91 0.9 CALM 0 0 0 0 1012.2 1012.1 0.0
24/06:00am 18.9 21.4 17.2 90 1.0 CALM 0 0 0 0 1012.0 1011.9 0.0
24/05:30am 18.7 21.1 16.9 89 1.1 CALM 0 0 0 0 1012.0 1011.9 0.0
24/05:00am 18.7 21.1 17.0 90 1.0 CALM 0 0 0 0 1011.8 1011.7 0.0
24/04:30am 19.3 21.9 17.4 89 1.2 CALM 0 0 0 0 1011.7 1011.6 0.0
24/04:00am 19.2 20.9 17.2 88 1.2 NNE 4 4 2 2 1011.8 1011.7 0.0
24/03:30am 19.6 21.5 17.7 89 1.2 NNE 4 4 2 2 1011.8 1011.7 0.0
24/03:00am 20.1 22.6 18.1 88 1.2 NE 2 2 1 1 1011.8 1011.7 0.0
24/02:30am 20.5 23.1 18.4 88 1.3 NE 2 4 1 2 1011.7 1011.6 0.0
24/02:00am 20.8 23.9 18.6 87 1.4 CALM 0 0 0 0 1011.9 1011.8 0.0
24/01:30am 20.9 23.8 18.3 85 1.6 CALM 0 0 0 0 1011.8 1011.7 0.0
24/01:00am 21.0 24.1 18.6 86 1.5 CALM 0 0 0 0 1011.7 1011.6 0.0
24/12:30am 20.9 23.1 18.3 85 1.6 WNW 4 6 2 3 1011.6 1011.5 0.0
24/12:00am 21.5 23.9 18.7 84 1.8 NNW 4 6 2 3 1011.7 1011.6 0.0
 
Date/Time
CST
Temp
°C
App
Temp
°C
Dew
Point
°C
Rel
Hum
%
Delta-T
°C
Wind Press
QNH
hPa
Press
MSL
hPa
Rain since
9am
mm
Dir  Spd
km/h
Gust
km/h
Spd
kts
Gust
kts
23/11:30pm 22.4 25.1 19.4 83 1.9 NW 4 4 2 2 1011.6 1011.5 0.0
23/11:00pm 22.4 24.5 19.0 81 2.2 NNW 6 6 3 3 1011.5 1011.4 0.0
23/10:30pm 22.8 24.5 18.6 77 2.6 W 7 9 4 5 1011.2 1011.1 0.0
23/10:00pm 23.6 25.6 19.1 76 2.9 W 7 9 4 5 1011.0 1010.9 0.0
23/09:30pm 24.2 26.2 19.1 73 3.3 WNW 7 9 4 5 1010.6 1010.6 0.0
23/09:00pm 25.0 26.9 18.9 69 3.9 WNW 7 9 4 5 1010.5 1010.5 0.0
23/08:30pm 25.8 27.9 19.4 67 4.1 NW 7 9 4 5 1010.3 1010.3 0.0
23/08:00pm 26.0 27.7 19.4 67 4.3 NW 9 13 5 7 1009.9 1009.9 0.0
23/07:30pm 26.5 28.2 19.4 65 4.6 NW 9 11 5 6 1009.6 1009.6 0.0
23/07:00pm 27.6 28.9 19.4 61 5.3 NW 11 13 6 7 1009.2 1009.2 0.0
23/06:30pm 29.1 30.1 19.4 55 6.3 NW 13 17 7 9 1008.9 1008.9 0.0
23/06:00pm 30.6 31.6 18.7 49 7.7 N 11 13 6 7 1008.7 1008.7 0.0
23/05:30pm 32.0 31.8 18.6 45 8.7 N 17 24 9 13 1008.5 1008.5 0.0
23/05:00pm 34.8 34.6 14.7 30 12.5 SE 9 15 5 8 1008.2 1008.2 0.0
23/04:30pm 33.8 33.3 14.8 32 11.8 ESE 11 15 6 8 1008.4 1008.4 0.0
23/04:00pm 34.8 33.8 14.7 30 12.5 ESE 13 20 7 11 1008.4 1008.4 0.0
23/03:30pm 34.2 33.6 14.7 31 12.1 ESE 11 22 6 12 1008.6 1008.6 0.0
23/03:00pm 33.5 31.9 15.0 32 11.5 SE 17 22 9 12 1008.9 1008.9 0.0
23/02:30pm 35.0 34.3 15.3 30 12.3 ESE 13 26 7 14 1009.3 1009.3 0.0
23/02:00pm 34.9 32.8 14.7 29 12.5 ESE 19 28 10 15 1009.8 1009.8 0.0
23/01:30pm 34.1 33.8 15.5 32 11.6 E 11 22 6 12 1010.5 1010.5 0.0
23/01:00pm 32.7 32.2 14.8 34 11.0 ESE 11 19 6 10 1011.2 1011.1 0.0
23/12:30pm 33.9 34.1 15.8 33 11.4 E 9 19 5 10 1011.6 1011.5 0.0
23/12:00pm 32.3 32.3 16.2 38 10.1 ESE 11 19 6 10 1012.2 1012.1 0.0
23/11:30am 31.9 32.7 17.4 42 9.3 SE 9 26 5 14 1012.7 1012.6 0.0
23/11:00am 31.4 32.2 17.3 43 9.0 ESE 9 20 5 11 1013.1 1013.0 0.0
23/10:30am 30.3 31.8 18.1 48 7.8 E 7 13 4 7 1013.5 1013.4 0.0
23/10:00am 29.0 31.0 18.7 53 6.6 SE 6 11 3 6 1013.6 1013.5 0.0
23/09:30am 29.1 32.8 20.0 58 6.0 CALM 0 4 0 2 1013.4 1013.3 0.0
23/09:00am 26.8 29.7 19.9 66 4.5 SSW 4 6 2 3 1013.4 1013.3 0.0
23/08:30am 24.3 28.0 20.0 77 2.8 CALM 0 0 0 0 1013.2 1013.1 0.0
23/08:00am 21.0 24.2 18.9 88 1.3 CALM 0 0 0 0 1013.0 1012.9 0.0
23/07:30am 18.5 20.8 16.7 89 1.1 CALM 0 0 0 0 1012.8 1012.7 0.0
23/07:00am 18.8 21.0 16.6 87 1.3 CALM 0 0 0 0 1012.6 1012.5 0.0
23/06:30am 19.3 21.3 16.9 86 1.5 SSW 2 4 1 2 1012.3 1012.2 0.0
23/06:00am 19.6 22.2 17.6 88 1.2 CALM 0 4 0 2 1011.9 1011.8 0.0
23/05:30am 19.6 22.0 17.0 85 1.6 CALM 0 0 0 0 1011.7 1011.6 0.0
23/05:00am 19.9 22.3 17.1 84 1.7 CALM 0 0 0 0 1011.5 1011.4 0.0
23/04:30am 21.2 24.2 18.4 84 1.8 CALM 0 4 0 2 1011.2 1011.1 0.0
23/04:00am 21.1 24.1 18.5 85 1.6 CALM 0 0 0 0 1011.2 1011.1 0.0
23/03:30am 21.0 22.7 18.0 83 1.9 SW 6 7 3 4 1011.2 1011.1 0.0
23/03:00am 21.6 24.6 18.4 82 2.0 CALM 0 0 0 0 1011.6 1011.5 0.0
23/02:30am 21.4 24.4 18.4 83 1.9 CALM 0 0 0 0 1011.6 1011.5 0.0
23/02:00am 21.3 24.2 18.1 82 2.0 CALM 0 0 0 0 1011.7 1011.6 0.0
23/01:30am 20.8 23.1 17.8 83 1.9 SW 2 4 1 2 1011.7 1011.6 0.0
23/01:00am 21.1 23.9 17.9 82 2.0 CALM 0 0 0 0 1011.8 1011.7 0.0
23/12:30am 21.1 23.9 17.9 82 2.0 CALM 0 0 0 0 1011.7 1011.6 0.0
23/12:00am 21.3 24.1 17.9 81 2.1 CALM 0 0 0 0 1011.7 1011.6 0.0
 
Date/Time
CST
Temp
°C
App
Temp
°C
Dew
Point
°C
Rel
Hum
%
Delta-T
°C
Wind Press
QNH
hPa
Press
MSL
hPa
Rain since
9am
mm
Dir  Spd
km/h
Gust
km/h
Spd
kts
Gust
kts
22/11:30pm 21.8 23.8 17.8 78 2.5 S 4 6 2 3 1011.8 1011.7 0.0
22/11:00pm 22.0 23.8 18.2 79 2.4 S 6 9 3 5 1011.6 1011.5 0.0
22/10:30pm 21.7 24.4 17.7 78 2.5 CALM 0 4 0 2 1011.4 1011.3 0.0
22/10:00pm 22.0 24.0 16.9 73 3.1 SW 2 4 1 2 1011.3 1011.2 0.0
22/09:30pm 22.7 24.8 17.2 71 3.4 SW 2 2 1 1 1011.2 1011.1 0.0
22/09:00pm 23.6 25.4 17.3 67 3.9 WNW 4 4 2 2 1011.0 1010.9 0.0
22/08:30pm 24.1 25.9 17.4 66 4.2 WSW 4 4 2 2 1010.6 1010.6 0.0
22/08:00pm 25.5 26.6 17.2 60 5.2 N 7 9 4 5 1010.3 1010.3 0.0
22/07:30pm 27.1 27.5 17.3 55 6.2 N 11 13 6 7 1010.0 1010.0 0.0
22/07:00pm 27.8 28.2 17.3 52 6.6 N 11 13 6 7 1009.7 1009.7 0.0
22/06:30pm 28.7 29.3 16.9 48 7.4 N 9 13 5 7 1009.5 1009.5 0.0
22/06:00pm 30.4 30.1 16.4 43 8.8 N 13 19 7 10 1009.1 1009.1 0.0
22/05:30pm 33.0 33.0 14.1 32 11.6 ENE 7 11 4 6 1008.9 1008.9 0.0
22/05:00pm 34.1 33.1 13.5 28 12.5 E 11 17 6 9 1008.8 1008.8 0.0
22/04:30pm 34.3 33.0 13.7 29 12.6 E 13 22 7 12 1008.8 1008.8 0.0
22/04:00pm 34.0 33.0 13.5 29 12.4 E 11 17 6 9 1008.9 1008.9 0.0
22/03:30pm 34.5 33.3 13.9 29 12.6 SE 13 22 7 12 1009.2 1009.2 0.0
22/03:00pm 34.3 33.4 13.7 29 12.6 E 11 22 6 12 1009.6 1009.6 0.0
22/02:30pm 34.3 33.2 14.2 29 12.4 ESE 13 24 7 13 1009.8 1009.8 0.0
22/02:00pm 33.8 32.7 14.3 31 12.0 ESE 13 22 7 12 1010.1 1010.1 0.0
22/01:30pm 33.0 32.4 14.6 33 11.3 ESE 11 22 6 12 1010.9 1010.8 0.0
22/01:00pm 32.9 32.3 14.5 33 11.3 SE 11 19 6 10 1011.2 1011.1 0.0
22/12:30pm 32.4 31.4 14.5 33 11.0 E 13 19 7 10 1011.8 1011.7 0.0
22/12:00pm 32.0 31.0 14.6 34 10.7 E 13 20 7 11 1012.4 1012.3 0.0
22/11:30am 31.4 31.8 16.2 40 9.5 ENE 9 17 5 9 1013.0 1012.9 0.0
22/11:00am 29.9 30.0 15.6 42 8.8 ESE 9 15 5 8 1013.5 1013.4 0.0
22/10:30am 28.1 29.4 17.0 51 6.9 SE 6 13 3 7 1013.8 1013.7 0.0
22/10:00am 25.8 27.4 16.9 58 5.5 ESE 4 9 2 5 1014.1 1014.0 0.0
22/09:30am 23.9 25.6 17.2 66 4.1 S 4 6 2 3 1014.0 1013.9 0.0
22/09:00am 21.7 23.2 17.7 78 2.5 SSW 6 7 3 4 1013.9 1013.8 0.0
22/08:30am 18.9 21.5 17.6 92 0.8 CALM 0 0 0 0 1013.8 1013.7 0.0
22/08:00am 16.3 17.3 15.3 94 0.6 NW 4 6 2 3 1013.6 1013.5 0.0

Latest Capital City Observations: Canberra | Sydney | Melbourne | Brisbane | Adelaide | Perth | Hobart | Darwin

Other Formats:

Comma delimited format used in spreadsheet applications
http://www.bom.gov.au/fwo/IDD60901/IDD60901.95121.axf

JavaScript Object Notation format (JSON) in row-major order
http://www.bom.gov.au/fwo/IDD60901/IDD60901.95121.json